DESTH EDFM-EDDE
Flight info
| Callsign | DESTH |
|---|---|
| Flight time | 1h 20m |
| Altitude | 5000 |
| Route | VFR |
| Aircraft | PA24/L-SDGRY/S |
Departure
| Time | 2026-04-26 16:17 |
|---|---|
| Airport | Mannheim-City Airport (EDFM) |
Arrival
| Time | 2026-04-26 17:37 |
|---|---|
| Airport | Erfurt-Weimar Airport (EDDE) |
| Time | Latitude | Longitude | Altitude | Speed | Heading |
|---|---|---|---|---|---|
| 2026-04-26 15:30 | 49.47561 | 8.52057 | 315 ft | 0 kts | 182° |
| 2026-04-26 16:08 | 49.47560 | 8.52056 | 312 ft | 0 kts | 182° |
| 2026-04-26 16:13 | 49.47549 | 8.52057 | 306 ft | 6 kts | 169° |
| 2026-04-26 16:13 | 49.47539 | 8.52111 | 306 ft | 8 kts | 90° |
| 2026-04-26 16:13 | 49.47509 | 8.52172 | 306 ft | 13 kts | 184° |
| 2026-04-26 16:13 | 49.47393 | 8.52162 | 306 ft | 14 kts | 182° |
| 2026-04-26 16:14 | 49.47348 | 8.52157 | 306 ft | 0 kts | 211° |
| 2026-04-26 16:16 | 49.47250 | 8.52136 | 306 ft | 12 kts | 247° |
| 2026-04-26 16:16 | 49.47260 | 8.51685 | 312 ft | 77 kts | 274° |
| 2026-04-26 16:16 | 49.47288 | 8.50805 | 512 ft | 84 kts | 277° |
| 2026-04-26 16:16 | 49.47317 | 8.49898 | 706 ft | 86 kts | 274° |
| 2026-04-26 16:17 | 49.47076 | 8.49094 | 784 ft | 101 kts | 206° |
| 2026-04-26 16:17 | 49.46446 | 8.48891 | 1043 ft | 98 kts | 155° |
| 2026-04-26 16:17 | 49.46142 | 8.49807 | 1239 ft | 93 kts | 96° |
| 2026-04-26 16:17 | 49.46035 | 8.50800 | 1284 ft | 95 kts | 90° |
| 2026-04-26 16:18 | 49.45983 | 8.51802 | 1342 ft | 93 kts | 87° |
| 2026-04-26 16:18 | 49.46028 | 8.53738 | 1253 ft | 84 kts | 82° |
| 2026-04-26 16:19 | 49.46906 | 8.54581 | 851 ft | 74 kts | 342° |
| 2026-04-26 16:19 | 49.47168 | 8.53988 | 622 ft | 71 kts | 279° |
| 2026-04-26 16:19 | 49.47229 | 8.52623 | 428 ft | 61 kts | 280° |
| 2026-04-26 16:20 | 49.47243 | 8.51990 | 347 ft | 57 kts | 281° |
| 2026-04-26 16:20 | 49.47296 | 8.50781 | 417 ft | 70 kts | 276° |
| 2026-04-26 16:20 | 49.47304 | 8.50015 | 644 ft | 76 kts | 269° |
| 2026-04-26 16:21 | 49.47176 | 8.49125 | 815 ft | 99 kts | 238° |
| 2026-04-26 16:21 | 49.46505 | 8.48978 | 1072 ft | 113 kts | 158° |
| 2026-04-26 16:21 | 49.46056 | 8.50025 | 1265 ft | 123 kts | 109° |
| 2026-04-26 16:21 | 49.45786 | 8.51195 | 1313 ft | 108 kts | 101° |
| 2026-04-26 16:22 | 49.45689 | 8.52289 | 1274 ft | 101 kts | 82° |
| 2026-04-26 16:22 | 49.45937 | 8.53229 | 1147 ft | 99 kts | 38° |
| 2026-04-26 16:22 | 49.46537 | 8.53652 | 993 ft | 87 kts | 11° |
| 2026-04-26 16:22 | 49.47067 | 8.53636 | 772 ft | 75 kts | 318° |
| 2026-04-26 16:23 | 49.47220 | 8.52896 | 492 ft | 74 kts | 277° |
| 2026-04-26 16:23 | 49.47244 | 8.52173 | 359 ft | 62 kts | 279° |
| 2026-04-26 16:23 | 49.47263 | 8.51615 | 305 ft | 47 kts | 271° |
| 2026-04-26 16:23 | 49.47280 | 8.50979 | 404 ft | 68 kts | 279° |
| 2026-04-26 16:24 | 49.47357 | 8.50187 | 594 ft | 79 kts | 285° |
| 2026-04-26 16:24 | 49.47449 | 8.49347 | 813 ft | 81 kts | 283° |
| 2026-04-26 16:24 | 49.47578 | 8.48456 | 1006 ft | 88 kts | 290° |
| 2026-04-26 16:24 | 49.47745 | 8.47514 | 1166 ft | 94 kts | 292° |
| 2026-04-26 16:25 | 49.47995 | 8.46610 | 1378 ft | 94 kts | 309° |
| 2026-04-26 16:25 | 49.48491 | 8.45976 | 1581 ft | 93 kts | 336° |
| 2026-04-26 16:25 | 49.49073 | 8.45552 | 1816 ft | 90 kts | 340° |
| 2026-04-26 16:25 | 49.49656 | 8.45178 | 2025 ft | 92 kts | 345° |
| 2026-04-26 16:26 | 49.50243 | 8.44873 | 2282 ft | 89 kts | 345° |
| 2026-04-26 16:26 | 49.50862 | 8.44591 | 2421 ft | 95 kts | 348° |
| 2026-04-26 16:26 | 49.51504 | 8.44281 | 2512 ft | 101 kts | 347° |
| 2026-04-26 16:26 | 49.52184 | 8.43966 | 2641 ft | 102 kts | 349° |
| 2026-04-26 16:27 | 49.52878 | 8.43636 | 2768 ft | 105 kts | 348° |
| 2026-04-26 16:27 | 49.53600 | 8.43286 | 2804 ft | 110 kts | 345° |
| 2026-04-26 16:27 | 49.54313 | 8.42821 | 2822 ft | 115 kts | 337° |
| 2026-04-26 16:27 | 49.55031 | 8.42253 | 2812 ft | 119 kts | 342° |
| 2026-04-26 16:28 | 49.55652 | 8.42745 | 2862 ft | 117 kts | 83° |
| 2026-04-26 16:28 | 49.55382 | 8.43903 | 2968 ft | 116 kts | 114° |
| 2026-04-26 16:28 | 49.54855 | 8.44927 | 2939 ft | 126 kts | 127° |
| 2026-04-26 16:28 | 49.54304 | 8.45959 | 3019 ft | 124 kts | 124° |
| 2026-04-26 16:29 | 49.53733 | 8.47124 | 3006 ft | 144 kts | 122° |
| 2026-04-26 16:29 | 49.53206 | 8.48421 | 3157 ft | 145 kts | 112° |
| 2026-04-26 16:29 | 49.53205 | 8.49904 | 3161 ft | 148 kts | 49° |
| 2026-04-26 16:29 | 49.54096 | 8.50612 | 3196 ft | 137 kts | 24° |
| 2026-04-26 16:30 | 49.54911 | 8.51332 | 3073 ft | 134 kts | 35° |
| 2026-04-26 16:30 | 49.55659 | 8.52164 | 2920 ft | 134 kts | 37° |
| 2026-04-26 16:30 | 49.56411 | 8.53015 | 2735 ft | 136 kts | 33° |
| 2026-04-26 16:30 | 49.57209 | 8.53751 | 2669 ft | 130 kts | 27° |
| 2026-04-26 16:31 | 49.58020 | 8.54364 | 2538 ft | 133 kts | 21° |
| 2026-04-26 16:31 | 49.58910 | 8.54811 | 2353 ft | 135 kts | 14° |
| 2026-04-26 16:31 | 49.59833 | 8.55039 | 2216 ft | 133 kts | 5° |
| 2026-04-26 16:31 | 49.60746 | 8.55113 | 2070 ft | 130 kts | 3° |
| 2026-04-26 16:32 | 49.61632 | 8.55160 | 1986 ft | 124 kts | 4° |
| 2026-04-26 16:32 | 49.62190 | 8.55202 | 1963 ft | 119 kts | 4° |
| 2026-04-26 16:32 | 49.63276 | 8.55314 | 1830 ft | 120 kts | 5° |
| 2026-04-26 16:32 | 49.64104 | 8.55383 | 1767 ft | 116 kts | 4° |
| 2026-04-26 16:33 | 49.64897 | 8.55438 | 1735 ft | 112 kts | 3° |
| 2026-04-26 16:33 | 49.65660 | 8.55418 | 1714 ft | 110 kts | 359° |
| 2026-04-26 16:33 | 49.66437 | 8.55352 | 1622 ft | 112 kts | 357° |
| 2026-04-26 16:33 | 49.67211 | 8.55275 | 1569 ft | 110 kts | 357° |
| 2026-04-26 16:34 | 49.67975 | 8.55170 | 1479 ft | 114 kts | 358° |
| 2026-04-26 16:34 | 49.68774 | 8.55104 | 1390 ft | 114 kts | 359° |
| 2026-04-26 16:34 | 49.69541 | 8.55022 | 1362 ft | 109 kts | 355° |
| 2026-04-26 16:34 | 49.70299 | 8.54875 | 1331 ft | 106 kts | 354° |
| 2026-04-26 16:35 | 49.71003 | 8.54733 | 1320 ft | 101 kts | 355° |
| 2026-04-26 16:35 | 49.71732 | 8.54583 | 1364 ft | 114 kts | 356° |
| 2026-04-26 16:35 | 49.72583 | 8.54456 | 1395 ft | 129 kts | 358° |
| 2026-04-26 16:35 | 49.73485 | 8.54338 | 1544 ft | 131 kts | 359° |
| 2026-04-26 16:36 | 49.74384 | 8.54322 | 1589 ft | 128 kts | 4° |
| 2026-04-26 16:36 | 49.75239 | 8.54456 | 1585 ft | 116 kts | 12° |
| 2026-04-26 16:36 | 49.75987 | 8.54697 | 1528 ft | 107 kts | 14° |
| 2026-04-26 16:36 | 49.76709 | 8.54996 | 1428 ft | 108 kts | 17° |
| 2026-04-26 16:37 | 49.77425 | 8.55337 | 1322 ft | 106 kts | 21° |
| 2026-04-26 16:37 | 49.78094 | 8.55820 | 1269 ft | 105 kts | 30° |
| 2026-04-26 16:37 | 49.78736 | 8.56354 | 1310 ft | 105 kts | 26° |
| 2026-04-26 16:37 | 49.79165 | 8.56646 | 1318 ft | 99 kts | 22° |
| 2026-04-26 16:38 | 49.79961 | 8.57158 | 1317 ft | 91 kts | 25° |
| 2026-04-26 16:38 | 49.80549 | 8.57578 | 1285 ft | 92 kts | 26° |
| 2026-04-26 16:38 | 49.81123 | 8.57994 | 1282 ft | 89 kts | 25° |
| 2026-04-26 16:38 | 49.81715 | 8.58400 | 1371 ft | 103 kts | 23° |
| 2026-04-26 16:39 | 49.82470 | 8.58853 | 1374 ft | 125 kts | 19° |
| 2026-04-26 16:39 | 49.83319 | 8.59271 | 1465 ft | 127 kts | 15° |
| 2026-04-26 16:39 | 49.84166 | 8.59520 | 1458 ft | 122 kts | 11° |
| 2026-04-26 16:39 | 49.85001 | 8.59746 | 1391 ft | 125 kts | 11° |
| 2026-04-26 16:40 | 49.85855 | 8.59935 | 1306 ft | 123 kts | 9° |
| 2026-04-26 16:40 | 49.86701 | 8.60105 | 1287 ft | 121 kts | 8° |
| 2026-04-26 16:40 | 49.87511 | 8.60271 | 1287 ft | 116 kts | 10° |
| 2026-04-26 16:40 | 49.88318 | 8.60436 | 1245 ft | 116 kts | 7° |
| 2026-04-26 16:41 | 49.89102 | 8.60544 | 1312 ft | 109 kts | 6° |
| 2026-04-26 16:41 | 49.89882 | 8.60675 | 1310 ft | 119 kts | 10° |
| 2026-04-26 16:41 | 49.90683 | 8.60906 | 1367 ft | 112 kts | 14° |
| 2026-04-26 16:41 | 49.91438 | 8.61234 | 1352 ft | 117 kts | 12° |
| 2026-04-26 16:42 | 49.92236 | 8.61432 | 1385 ft | 115 kts | 8° |
| 2026-04-26 16:42 | 49.93043 | 8.61449 | 1386 ft | 119 kts | 356° |
| 2026-04-26 16:42 | 49.93864 | 8.61297 | 1399 ft | 118 kts | 357° |
| 2026-04-26 16:42 | 49.94652 | 8.61158 | 1421 ft | 111 kts | 356° |
| 2026-04-26 16:43 | 49.95414 | 8.60993 | 1393 ft | 109 kts | 353° |
| 2026-04-26 16:43 | 49.96158 | 8.60777 | 1349 ft | 109 kts | 353° |
| 2026-04-26 16:43 | 49.96912 | 8.60595 | 1347 ft | 109 kts | 354° |
| 2026-04-26 16:43 | 49.97650 | 8.60425 | 1361 ft | 103 kts | 353° |
| 2026-04-26 16:44 | 49.98349 | 8.60242 | 1326 ft | 101 kts | 354° |
| 2026-04-26 16:44 | 49.98991 | 8.59962 | 1388 ft | 93 kts | 338° |
| 2026-04-26 16:44 | 49.99528 | 8.59463 | 1466 ft | 88 kts | 330° |
| 2026-04-26 16:44 | 50.00121 | 8.59159 | 1467 ft | 93 kts | 358° |
| 2026-04-26 16:45 | 50.00767 | 8.59096 | 1473 ft | 97 kts | 360° |
| 2026-04-26 16:45 | 50.01488 | 8.59054 | 1492 ft | 111 kts | 0° |
| 2026-04-26 16:45 | 50.02332 | 8.59097 | 1515 ft | 131 kts | 7° |
| 2026-04-26 16:45 | 50.03273 | 8.59349 | 1512 ft | 146 kts | 13° |
| 2026-04-26 16:46 | 50.04281 | 8.59767 | 1469 ft | 152 kts | 18° |
| 2026-04-26 16:46 | 50.05275 | 8.60307 | 1589 ft | 148 kts | 20° |
| 2026-04-26 16:46 | 50.06267 | 8.60781 | 1629 ft | 149 kts | 16° |
| 2026-04-26 16:46 | 50.07317 | 8.61237 | 1370 ft | 162 kts | 15° |
| 2026-04-26 16:47 | 50.08359 | 8.61632 | 1428 ft | 150 kts | 11° |
| 2026-04-26 16:47 | 50.09349 | 8.61508 | 1425 ft | 141 kts | 342° |
| 2026-04-26 16:47 | 50.10244 | 8.60884 | 1423 ft | 137 kts | 335° |
| 2026-04-26 16:47 | 50.11101 | 8.60244 | 1463 ft | 137 kts | 339° |
| 2026-04-26 16:48 | 50.12023 | 8.59777 | 1368 ft | 143 kts | 350° |
| 2026-04-26 16:48 | 50.12963 | 8.59475 | 1446 ft | 139 kts | 354° |
| 2026-04-26 16:48 | 50.13915 | 8.59577 | 1459 ft | 136 kts | 18° |
| 2026-04-26 16:48 | 50.14675 | 8.60422 | 1499 ft | 131 kts | 51° |
| 2026-04-26 16:49 | 50.15105 | 8.61652 | 1617 ft | 127 kts | 64° |
| 2026-04-26 16:49 | 50.15441 | 8.62878 | 1669 ft | 123 kts | 64° |
| 2026-04-26 16:49 | 50.15809 | 8.64156 | 1417 ft | 130 kts | 63° |
| 2026-04-26 16:49 | 50.16191 | 8.65386 | 1371 ft | 120 kts | 60° |
| 2026-04-26 16:50 | 50.16587 | 8.66544 | 1214 ft | 126 kts | 59° |
| 2026-04-26 16:50 | 50.16980 | 8.67709 | 1173 ft | 122 kts | 69° |
| 2026-04-26 16:50 | 50.17214 | 8.68992 | 1228 ft | 125 kts | 75° |
| 2026-04-26 16:50 | 50.17383 | 8.70319 | 1269 ft | 128 kts | 78° |
| 2026-04-26 16:51 | 50.17579 | 8.71659 | 1402 ft | 124 kts | 68° |
| 2026-04-26 16:51 | 50.17895 | 8.72949 | 1364 ft | 133 kts | 64° |
| 2026-04-26 16:51 | 50.18321 | 8.74238 | 1345 ft | 133 kts | 56° |
| 2026-04-26 16:51 | 50.18786 | 8.75487 | 1361 ft | 134 kts | 58° |
| 2026-04-26 16:52 | 50.19234 | 8.76746 | 1365 ft | 133 kts | 58° |
| 2026-04-26 16:52 | 50.19526 | 8.77621 | 1366 ft | 136 kts | 61° |
| 2026-04-26 16:52 | 50.20041 | 8.79372 | 1365 ft | 135 kts | 64° |
| 2026-04-26 16:52 | 50.20380 | 8.80745 | 1463 ft | 136 kts | 66° |
| 2026-04-26 16:53 | 50.20690 | 8.82098 | 1787 ft | 129 kts | 66° |
| 2026-04-26 16:53 | 50.21010 | 8.83433 | 1949 ft | 135 kts | 67° |
| 2026-04-26 16:53 | 50.21345 | 8.84800 | 2171 ft | 132 kts | 65° |
| 2026-04-26 16:53 | 50.21693 | 8.86116 | 2399 ft | 132 kts | 64° |
| 2026-04-26 16:54 | 50.22075 | 8.87393 | 2504 ft | 124 kts | 61° |
| 2026-04-26 16:54 | 50.22487 | 8.88696 | 2507 ft | 141 kts | 60° |
| 2026-04-26 16:54 | 50.22974 | 8.90070 | 2535 ft | 148 kts | 57° |
| 2026-04-26 16:54 | 50.23481 | 8.91461 | 2664 ft | 145 kts | 60° |
| 2026-04-26 16:55 | 50.23956 | 8.92853 | 2800 ft | 145 kts | 60° |
| 2026-04-26 16:55 | 50.24414 | 8.94266 | 2879 ft | 146 kts | 62° |
| 2026-04-26 16:55 | 50.24849 | 8.95710 | 2998 ft | 146 kts | 64° |
| 2026-04-26 16:55 | 50.25260 | 8.97171 | 3098 ft | 149 kts | 64° |
| 2026-04-26 16:56 | 50.26044 | 9.00151 | 3292 ft | 147 kts | 65° |
| 2026-04-26 16:56 | 50.26431 | 9.01640 | 3402 ft | 150 kts | 66° |
| 2026-04-26 16:56 | 50.26829 | 9.03144 | 3501 ft | 150 kts | 65° |
| 2026-04-26 16:57 | 50.27249 | 9.04632 | 3598 ft | 150 kts | 63° |
| 2026-04-26 16:57 | 50.27706 | 9.06093 | 3697 ft | 149 kts | 60° |
| 2026-04-26 16:57 | 50.28651 | 9.08986 | 3830 ft | 152 kts | 62° |
| 2026-04-26 16:58 | 50.29150 | 9.10572 | 3607 ft | 166 kts | 62° |
| 2026-04-26 16:58 | 50.29314 | 9.11096 | 3581 ft | 166 kts | 62° |
| 2026-04-26 16:58 | 50.30549 | 9.15452 | 3459 ft | 161 kts | 64° |
| 2026-04-26 16:59 | 50.31013 | 9.17029 | 3454 ft | 158 kts | 64° |
| 2026-04-26 16:59 | 50.31955 | 9.20118 | 3452 ft | 156 kts | 64° |
| 2026-04-26 17:00 | 50.32830 | 9.23205 | 3456 ft | 155 kts | 65° |
| 2026-04-26 17:00 | 50.33716 | 9.26290 | 3461 ft | 156 kts | 64° |
| 2026-04-26 17:00 | 50.34184 | 9.27817 | 3461 ft | 155 kts | 63° |
| 2026-04-26 17:01 | 50.34631 | 9.29345 | 3459 ft | 155 kts | 64° |
| 2026-04-26 17:01 | 50.35087 | 9.30879 | 3459 ft | 156 kts | 63° |
| 2026-04-26 17:01 | 50.35547 | 9.32411 | 3442 ft | 157 kts | 65° |
| 2026-04-26 17:01 | 50.35975 | 9.34004 | 3450 ft | 153 kts | 64° |
| 2026-04-26 17:02 | 50.36396 | 9.35410 | 3820 ft | 139 kts | 64° |
| 2026-04-26 17:02 | 50.36825 | 9.36865 | 3831 ft | 145 kts | 63° |
| 2026-04-26 17:02 | 50.37251 | 9.38256 | 4090 ft | 140 kts | 64° |
| 2026-04-26 17:02 | 50.37631 | 9.39528 | 4534 ft | 124 kts | 64° |
| 2026-04-26 17:03 | 50.37970 | 9.40698 | 4943 ft | 116 kts | 65° |
| 2026-04-26 17:03 | 50.38304 | 9.41837 | 5270 ft | 117 kts | 64° |
| 2026-04-26 17:03 | 50.38652 | 9.43041 | 5496 ft | 124 kts | 64° |
| 2026-04-26 17:03 | 50.39029 | 9.44390 | 5457 ft | 147 kts | 65° |
| 2026-04-26 17:04 | 50.39444 | 9.45907 | 5475 ft | 155 kts | 65° |
| 2026-04-26 17:04 | 50.39871 | 9.47487 | 5491 ft | 160 kts | 66° |
| 2026-04-26 17:04 | 50.40299 | 9.49107 | 5489 ft | 161 kts | 65° |
| 2026-04-26 17:04 | 50.40756 | 9.50721 | 5486 ft | 162 kts | 64° |
| 2026-04-26 17:05 | 50.41243 | 9.52293 | 5468 ft | 159 kts | 62° |
| 2026-04-26 17:05 | 50.41722 | 9.53833 | 5461 ft | 153 kts | 63° |
| 2026-04-26 17:05 | 50.42171 | 9.55291 | 5461 ft | 147 kts | 62° |
| 2026-04-26 17:05 | 50.42614 | 9.56733 | 5470 ft | 147 kts | 63° |
| 2026-04-26 17:06 | 50.43048 | 9.58180 | 5476 ft | 147 kts | 63° |
| 2026-04-26 17:06 | 50.43478 | 9.59631 | 5478 ft | 147 kts | 64° |
| 2026-04-26 17:06 | 50.43754 | 9.60599 | 5478 ft | 147 kts | 64° |
| 2026-04-26 17:06 | 50.44156 | 9.62072 | 5478 ft | 147 kts | 65° |
| 2026-04-26 17:07 | 50.44560 | 9.63548 | 5477 ft | 147 kts | 65° |
| 2026-04-26 17:07 | 50.44971 | 9.65017 | 5476 ft | 147 kts | 65° |
| 2026-04-26 17:07 | 50.45379 | 9.66486 | 5475 ft | 147 kts | 64° |
| 2026-04-26 17:07 | 50.45791 | 9.67950 | 5476 ft | 147 kts | 64° |
| 2026-04-26 17:08 | 50.46344 | 9.69890 | 5479 ft | 147 kts | 64° |
| 2026-04-26 17:08 | 50.46635 | 9.70875 | 5479 ft | 147 kts | 63° |
| 2026-04-26 17:08 | 50.47075 | 9.72328 | 5479 ft | 148 kts | 63° |
| 2026-04-26 17:08 | 50.47495 | 9.73784 | 5481 ft | 146 kts | 64° |
| 2026-04-26 17:09 | 50.47909 | 9.75236 | 5479 ft | 146 kts | 64° |
| 2026-04-26 17:09 | 50.48181 | 9.76198 | 5478 ft | 146 kts | 63° |
| 2026-04-26 17:09 | 50.48752 | 9.78103 | 5479 ft | 146 kts | 63° |
| 2026-04-26 17:09 | 50.49202 | 9.79535 | 5478 ft | 146 kts | 64° |
| 2026-04-26 17:10 | 50.49637 | 9.80977 | 5481 ft | 146 kts | 64° |
| 2026-04-26 17:10 | 50.50055 | 9.82429 | 5481 ft | 146 kts | 65° |
| 2026-04-26 17:10 | 50.50458 | 9.83891 | 5481 ft | 146 kts | 66° |
| 2026-04-26 17:10 | 50.50853 | 9.85360 | 5481 ft | 146 kts | 66° |
| 2026-04-26 17:11 | 50.51247 | 9.86831 | 5481 ft | 146 kts | 66° |
| 2026-04-26 17:11 | 50.51642 | 9.88299 | 5481 ft | 146 kts | 66° |
| 2026-04-26 17:11 | 50.52043 | 9.89762 | 5481 ft | 146 kts | 66° |
| 2026-04-26 17:11 | 50.52451 | 9.91223 | 5481 ft | 146 kts | 65° |
| 2026-04-26 17:12 | 50.53282 | 9.94140 | 5482 ft | 146 kts | 65° |
| 2026-04-26 17:12 | 50.53704 | 9.95598 | 5482 ft | 146 kts | 65° |
| 2026-04-26 17:13 | 50.54553 | 9.98506 | 5489 ft | 146 kts | 64° |
| 2026-04-26 17:13 | 50.54983 | 9.99949 | 5489 ft | 146 kts | 64° |
| 2026-04-26 17:13 | 50.55832 | 10.02848 | 5489 ft | 146 kts | 64° |
| 2026-04-26 17:14 | 50.56250 | 10.04301 | 5486 ft | 146 kts | 65° |
| 2026-04-26 17:14 | 50.57066 | 10.07225 | 5487 ft | 146 kts | 66° |
| 2026-04-26 17:14 | 50.57463 | 10.08693 | 5486 ft | 146 kts | 66° |
| 2026-04-26 17:15 | 50.58254 | 10.11631 | 5489 ft | 146 kts | 66° |
| 2026-04-26 17:15 | 50.58661 | 10.13093 | 5489 ft | 146 kts | 65° |
| 2026-04-26 17:15 | 50.59075 | 10.14548 | 5489 ft | 146 kts | 65° |
| 2026-04-26 17:16 | 50.59486 | 10.15984 | 5488 ft | 146 kts | 65° |
| 2026-04-26 17:16 | 50.59908 | 10.17440 | 5488 ft | 146 kts | 64° |
| 2026-04-26 17:16 | 50.60329 | 10.18894 | 5487 ft | 146 kts | 65° |
| 2026-04-26 17:16 | 50.60730 | 10.20362 | 5488 ft | 146 kts | 68° |
| 2026-04-26 17:17 | 50.61070 | 10.21875 | 5488 ft | 147 kts | 71° |
| 2026-04-26 17:17 | 50.61339 | 10.23424 | 5493 ft | 147 kts | 76° |
| 2026-04-26 17:17 | 50.61537 | 10.24996 | 5491 ft | 146 kts | 80° |
| 2026-04-26 17:17 | 50.61676 | 10.26586 | 5492 ft | 147 kts | 82° |
| 2026-04-26 17:18 | 50.61788 | 10.28181 | 5492 ft | 147 kts | 83° |
| 2026-04-26 17:18 | 50.61896 | 10.29778 | 5496 ft | 147 kts | 83° |
| 2026-04-26 17:18 | 50.62030 | 10.31379 | 5496 ft | 147 kts | 81° |
| 2026-04-26 17:18 | 50.62201 | 10.32971 | 5495 ft | 147 kts | 79° |
| 2026-04-26 17:19 | 50.62685 | 10.36109 | 5497 ft | 147 kts | 73° |
| 2026-04-26 17:19 | 50.62985 | 10.37651 | 5497 ft | 148 kts | 72° |
| 2026-04-26 17:19 | 50.63271 | 10.39207 | 5496 ft | 148 kts | 74° |
| 2026-04-26 17:20 | 50.63519 | 10.40777 | 5496 ft | 148 kts | 76° |
| 2026-04-26 17:20 | 50.63665 | 10.41822 | 5496 ft | 147 kts | 78° |
| 2026-04-26 17:20 | 50.63925 | 10.43942 | 5495 ft | 148 kts | 79° |
| 2026-04-26 17:20 | 50.64111 | 10.45510 | 5495 ft | 147 kts | 78° |
| 2026-04-26 17:21 | 50.64307 | 10.47098 | 5496 ft | 147 kts | 78° |
| 2026-04-26 17:21 | 50.64519 | 10.48677 | 5498 ft | 147 kts | 77° |
| 2026-04-26 17:21 | 50.64745 | 10.50251 | 5501 ft | 147 kts | 76° |
| 2026-04-26 17:21 | 50.64980 | 10.51821 | 5501 ft | 147 kts | 76° |
| 2026-04-26 17:22 | 50.65209 | 10.53393 | 5504 ft | 147 kts | 76° |
| 2026-04-26 17:22 | 50.65431 | 10.54971 | 5502 ft | 147 kts | 77° |
| 2026-04-26 17:22 | 50.65645 | 10.56549 | 5504 ft | 147 kts | 77° |
| 2026-04-26 17:22 | 50.65856 | 10.58125 | 5504 ft | 147 kts | 77° |
| 2026-04-26 17:23 | 50.66067 | 10.59709 | 5501 ft | 147 kts | 77° |
| 2026-04-26 17:23 | 50.66279 | 10.61288 | 5502 ft | 147 kts | 77° |
| 2026-04-26 17:23 | 50.66497 | 10.62867 | 5501 ft | 147 kts | 77° |
| 2026-04-26 17:23 | 50.66718 | 10.64442 | 5503 ft | 147 kts | 77° |
| 2026-04-26 17:24 | 50.66937 | 10.66016 | 5506 ft | 147 kts | 77° |
| 2026-04-26 17:24 | 50.67156 | 10.67595 | 5506 ft | 148 kts | 77° |
| 2026-04-26 17:24 | 50.67370 | 10.69178 | 5508 ft | 148 kts | 77° |
| 2026-04-26 17:24 | 50.67588 | 10.70766 | 5516 ft | 148 kts | 77° |
| 2026-04-26 17:25 | 50.67805 | 10.72352 | 5516 ft | 148 kts | 77° |
| 2026-04-26 17:25 | 50.68019 | 10.73939 | 5519 ft | 148 kts | 77° |
| 2026-04-26 17:25 | 50.68232 | 10.75527 | 5519 ft | 148 kts | 77° |
| 2026-04-26 17:25 | 50.68450 | 10.77113 | 5519 ft | 148 kts | 77° |
| 2026-04-26 17:26 | 50.68665 | 10.78703 | 5517 ft | 148 kts | 77° |
| 2026-04-26 17:26 | 50.68875 | 10.80289 | 5520 ft | 148 kts | 77° |
| 2026-04-26 17:26 | 50.69083 | 10.81874 | 5519 ft | 148 kts | 77° |
| 2026-04-26 17:26 | 50.69300 | 10.83456 | 5518 ft | 148 kts | 76° |
| 2026-04-26 17:27 | 50.69516 | 10.85021 | 5520 ft | 148 kts | 76° |
| 2026-04-26 17:27 | 50.69730 | 10.86612 | 5514 ft | 148 kts | 76° |
| 2026-04-26 17:27 | 50.69984 | 10.88182 | 5511 ft | 140 kts | 69° |
| 2026-04-26 17:27 | 50.70314 | 10.89547 | 4907 ft | 138 kts | 69° |
| 2026-04-26 17:28 | 50.70576 | 10.90929 | 4517 ft | 121 kts | 75° |
| 2026-04-26 17:28 | 50.70772 | 10.92166 | 4156 ft | 111 kts | 74° |
| 2026-04-26 17:28 | 50.70969 | 10.93234 | 4024 ft | 96 kts | 72° |
| 2026-04-26 17:28 | 50.71177 | 10.94231 | 4036 ft | 93 kts | 70° |
| 2026-04-26 17:29 | 50.71487 | 10.95169 | 4094 ft | 99 kts | 52° |
| 2026-04-26 17:29 | 50.71788 | 10.95773 | 4043 ft | 111 kts | 52° |
| 2026-04-26 17:29 | 50.72416 | 10.97137 | 3916 ft | 126 kts | 52° |
| 2026-04-26 17:29 | 50.72983 | 10.98240 | 3733 ft | 132 kts | 50° |
| 2026-04-26 17:30 | 50.73616 | 10.99341 | 3542 ft | 138 kts | 46° |
| 2026-04-26 17:30 | 50.74301 | 11.00385 | 3444 ft | 135 kts | 45° |
| 2026-04-26 17:30 | 50.74957 | 11.01375 | 3388 ft | 126 kts | 46° |
| 2026-04-26 17:30 | 50.75544 | 11.02361 | 3297 ft | 121 kts | 48° |
| 2026-04-26 17:31 | 50.76086 | 11.03344 | 3206 ft | 114 kts | 49° |
| 2026-04-26 17:31 | 50.76647 | 11.04292 | 3024 ft | 123 kts | 47° |
| 2026-04-26 17:31 | 50.77226 | 11.05283 | 2917 ft | 126 kts | 47° |
| 2026-04-26 17:31 | 50.77841 | 11.06222 | 2878 ft | 122 kts | 43° |
| 2026-04-26 17:32 | 50.78468 | 11.07092 | 2740 ft | 117 kts | 41° |
| 2026-04-26 17:32 | 50.79118 | 11.07842 | 2530 ft | 121 kts | 31° |
| 2026-04-26 17:32 | 50.79873 | 11.08395 | 2434 ft | 119 kts | 22° |
| 2026-04-26 17:32 | 50.80678 | 11.08559 | 2417 ft | 118 kts | 354° |
| 2026-04-26 17:33 | 50.81418 | 11.08189 | 2408 ft | 108 kts | 341° |
| 2026-04-26 17:33 | 50.82152 | 11.07685 | 2150 ft | 114 kts | 335° |
| 2026-04-26 17:33 | 50.82760 | 11.06995 | 2146 ft | 100 kts | 302° |
| 2026-04-26 17:34 | 50.82674 | 11.07428 | 2170 ft | 114 kts | 177° |
| 2026-04-26 17:34 | 50.81958 | 11.06793 | 2099 ft | 136 kts | 251° |
| 2026-04-26 17:34 | 50.82121 | 11.05390 | 2144 ft | 124 kts | 290° |
| 2026-04-26 17:34 | 50.82320 | 11.04196 | 2081 ft | 99 kts | 293° |
| 2026-04-26 17:35 | 50.82609 | 11.03254 | 1866 ft | 95 kts | 298° |
| 2026-04-26 17:35 | 50.82895 | 11.02364 | 1724 ft | 86 kts | 326° |
| 2026-04-26 17:35 | 50.83404 | 11.02481 | 1615 ft | 74 kts | 25° |
| 2026-04-26 17:35 | 50.83925 | 11.02640 | 1518 ft | 76 kts | 7° |
| 2026-04-26 17:36 | 50.84252 | 11.03085 | 1479 ft | 71 kts | 81° |
| 2026-04-26 17:36 | 50.84267 | 11.03895 | 1412 ft | 75 kts | 91° |
| 2026-04-26 17:36 | 50.84252 | 11.04709 | 1372 ft | 72 kts | 90° |
| 2026-04-26 17:36 | 50.84219 | 11.05460 | 1310 ft | 67 kts | 87° |
| 2026-04-26 17:37 | 50.84208 | 11.06157 | 1183 ft | 56 kts | 87° |
| 2026-04-26 17:37 | 50.84197 | 11.06783 | 1141 ft | 48 kts | 89° |
| 2026-04-26 17:37 | 50.84182 | 11.07401 | 1187 ft | 71 kts | 84° |
| 2026-04-26 17:38 | 50.84131 | 11.09135 | 1611 ft | 90 kts | 97° |
| 2026-04-26 17:38 | 50.84047 | 11.10168 | 1827 ft | 91 kts | 96° |
| 2026-04-26 17:38 | 50.83619 | 11.10893 | 1936 ft | 105 kts | 169° |
| 2026-04-26 17:38 | 50.82884 | 11.10544 | 2017 ft | 113 kts | 204° |
| 2026-04-26 17:39 | 50.82212 | 11.09902 | 2136 ft | 116 kts | 225° |
| 2026-04-26 17:39 | 50.82014 | 11.08642 | 2167 ft | 121 kts | 266° |
| 2026-04-26 17:39 | 50.81950 | 11.07285 | 2182 ft | 128 kts | 266° |
| 2026-04-26 17:39 | 50.81865 | 11.05955 | 2097 ft | 112 kts | 266° |
| 2026-04-26 17:40 | 50.81870 | 11.04811 | 2003 ft | 97 kts | 285° |
| 2026-04-26 17:40 | 50.82066 | 11.04197 | 1914 ft | 94 kts | 307° |
| 2026-04-26 17:40 | 50.82502 | 11.03065 | 1749 ft | 90 kts | 302° |
| 2026-04-26 17:40 | 50.82920 | 11.02289 | 1599 ft | 96 kts | 339° |
| 2026-04-26 17:41 | 50.83527 | 11.02413 | 1558 ft | 90 kts | 18° |
| 2026-04-26 17:41 | 50.84085 | 11.02790 | 1549 ft | 87 kts | 38° |
| 2026-04-26 17:41 | 50.84279 | 11.03693 | 1449 ft | 92 kts | 92° |
| 2026-04-26 17:41 | 50.84236 | 11.04563 | 1362 ft | 72 kts | 90° |
| 2026-04-26 17:42 | 50.84225 | 11.05334 | 1317 ft | 71 kts | 89° |
| 2026-04-26 17:42 | 50.84208 | 11.06178 | 1194 ft | 76 kts | 90° |
| 2026-04-26 17:42 | 50.84196 | 11.06870 | 1142 ft | 48 kts | 89° |
| 2026-04-26 17:42 | 50.84170 | 11.07567 | 1234 ft | 75 kts | 96° |
| 2026-04-26 17:43 | 50.84091 | 11.08374 | 1528 ft | 74 kts | 97° |
| 2026-04-26 17:43 | 50.84033 | 11.09175 | 1800 ft | 79 kts | 92° |
| 2026-04-26 17:43 | 50.84004 | 11.10040 | 2070 ft | 81 kts | 88° |
| 2026-04-26 17:43 | 50.83960 | 11.10953 | 2314 ft | 80 kts | 126° |
| 2026-04-26 17:44 | 50.83432 | 11.10645 | 2161 ft | 109 kts | 225° |
| 2026-04-26 17:44 | 50.83013 | 11.09725 | 2418 ft | 92 kts | 254° |
| 2026-04-26 17:44 | 50.83000 | 11.08639 | 2426 ft | 104 kts | 274° |
| 2026-04-26 17:44 | 50.82667 | 11.07563 | 2437 ft | 120 kts | 229° |
| 2026-04-26 17:45 | 50.82188 | 11.06458 | 2486 ft | 126 kts | 248° |
| 2026-04-26 17:45 | 50.81967 | 11.05125 | 2539 ft | 126 kts | 259° |
| 2026-04-26 17:45 | 50.81873 | 11.03753 | 2596 ft | 128 kts | 279° |
| 2026-04-26 17:45 | 50.82291 | 11.02551 | 2490 ft | 126 kts | 323° |
| 2026-04-26 17:46 | 50.83038 | 11.01916 | 2356 ft | 122 kts | 343° |
| 2026-04-26 17:46 | 50.83821 | 11.01481 | 2233 ft | 116 kts | 344° |
| 2026-04-26 17:46 | 50.84593 | 11.01122 | 2084 ft | 116 kts | 348° |
| 2026-04-26 17:46 | 50.85350 | 11.00780 | 2009 ft | 112 kts | 345° |
| 2026-04-26 17:47 | 50.86065 | 11.00338 | 2080 ft | 110 kts | 340° |
| 2026-04-26 17:47 | 50.86523 | 11.00014 | 2143 ft | 110 kts | 341° |
| 2026-04-26 17:47 | 50.87439 | 10.99327 | 2230 ft | 110 kts | 336° |
| 2026-04-26 17:47 | 50.88135 | 10.98739 | 2185 ft | 118 kts | 335° |
| 2026-04-26 17:48 | 50.88833 | 10.98010 | 2092 ft | 123 kts | 319° |
| 2026-04-26 17:48 | 50.89306 | 10.96896 | 2017 ft | 126 kts | 297° |
| 2026-04-26 17:48 | 50.89699 | 10.95663 | 1965 ft | 126 kts | 309° |
| 2026-04-26 17:48 | 50.90366 | 10.94801 | 1931 ft | 121 kts | 340° |
| 2026-04-26 17:49 | 50.91172 | 10.94648 | 1957 ft | 115 kts | 3° |
| 2026-04-26 17:49 | 50.91955 | 10.94780 | 1978 ft | 111 kts | 17° |
| 2026-04-26 17:49 | 50.92679 | 10.95193 | 1974 ft | 110 kts | 26° |
| 2026-04-26 17:49 | 50.93388 | 10.95649 | 1913 ft | 114 kts | 14° |
| 2026-04-26 17:50 | 50.94201 | 10.95476 | 1854 ft | 117 kts | 343° |
| 2026-04-26 17:50 | 50.94902 | 10.94912 | 1870 ft | 117 kts | 329° |
| 2026-04-26 17:50 | 50.95590 | 10.94156 | 1787 ft | 121 kts | 321° |
| 2026-04-26 17:50 | 50.96107 | 10.93120 | 1712 ft | 121 kts | 291° |
| 2026-04-26 17:51 | 50.96129 | 10.91801 | 1691 ft | 120 kts | 265° |
| 2026-04-26 17:51 | 50.96010 | 10.90499 | 1741 ft | 118 kts | 264° |
| 2026-04-26 17:51 | 50.95875 | 10.89231 | 1812 ft | 117 kts | 258° |
| 2026-04-26 17:51 | 50.95743 | 10.87971 | 1919 ft | 115 kts | 263° |
| 2026-04-26 17:52 | 50.95755 | 10.86716 | 2012 ft | 119 kts | 294° |
| 2026-04-26 17:52 | 50.96428 | 10.85948 | 1886 ft | 126 kts | 345° |
| 2026-04-26 17:52 | 50.97256 | 10.85667 | 1874 ft | 119 kts | 358° |
| 2026-04-26 17:52 | 50.98058 | 10.85658 | 1891 ft | 115 kts | 11° |
| 2026-04-26 17:53 | 50.98691 | 10.86332 | 1886 ft | 114 kts | 59° |
| 2026-04-26 17:53 | 50.98693 | 10.87557 | 1808 ft | 118 kts | 107° |
| 2026-04-26 17:53 | 50.98566 | 10.88861 | 1707 ft | 121 kts | 94° |
| 2026-04-26 17:54 | 50.98359 | 10.91242 | 1398 ft | 92 kts | 98° |
| 2026-04-26 17:54 | 50.98269 | 10.92195 | 1310 ft | 81 kts | 94° |
| 2026-04-26 17:54 | 50.98202 | 10.93102 | 1187 ft | 87 kts | 94° |
| 2026-04-26 17:54 | 50.98125 | 10.94014 | 1080 ft | 77 kts | 95° |
| 2026-04-26 17:55 | 50.98072 | 10.94705 | 1043 ft | 48 kts | 95° |
| 2026-04-26 17:55 | 50.98043 | 10.95074 | 1042 ft | 28 kts | 98° |
| 2026-04-26 17:55 | 50.98014 | 10.95399 | 1038 ft | 16 kts | 113° |
| 2026-04-26 17:55 | 50.97937 | 10.95375 | 1038 ft | 14 kts | 192° |
| 2026-04-26 17:56 | 50.97839 | 10.95355 | 1038 ft | 13 kts | 181° |
| 2026-04-26 17:56 | 50.97785 | 10.95634 | 1036 ft | 16 kts | 91° |
| 2026-04-26 17:57 | 50.97758 | 10.95951 | 1035 ft | 13 kts | 99° |
| 2026-04-26 17:57 | 50.97747 | 10.96109 | 1034 ft | 12 kts | 95° |
| 2026-04-26 17:57 | 50.97733 | 10.96277 | 1033 ft | 19 kts | 96° |
| 2026-04-26 17:57 | 50.97717 | 10.96461 | 1032 ft | 16 kts | 99° |
| 2026-04-26 17:58 | 50.97603 | 10.96610 | 1031 ft | 0 kts | 185° |
| 2026-04-26 17:59 | 50.97593 | 10.96564 | 1032 ft | 9 kts | 279° |
| 2026-04-26 17:59 | 50.97597 | 10.96513 | 1032 ft | 0 kts | 276° |
| 2026-04-26 17:59 | 50.97597 | 10.96512 | 1032 ft | 0 kts | 276° |